Terminal Aerodrome Forecast
Issued by NWS

Home | Current Version | Previous Version | Text Only | Print | Product List | Glossary Off
Versions: 1 2 3 4 5 6 7 8 9 10 11 12 13 14 15 16

000
FTUS43 KGRB 190920 AAA
TAFATW
TAF AMD
KATW 190920Z 1909/2006 28005KT 2SM BR SCT003
      TEMPO 1909/1913 1/2SM FG VV002
     FM191400 26008KT P6SM FEW040
     FM200100 22004KT P6SM SKC=

USA.gov is the U.S. government's official web portal to all federal, state and local government web resources and services.